sensor_id;sensor_type;location;lat;lon;timestamp;pressure;altitude;pressure_sealevel;temperature;humidity
29247;BME280;16272;48.188;9.964;2023-05-19T00:00:57;96179.53;;;11.38;63.43
29247;BME280;16272;48.188;9.964;2023-05-19T00:03:23;96174.41;;;11.27;63.61
29247;BME280;16272;48.188;9.964;2023-05-19T00:05:52;96167.66;;;11.32;63.58
29247;BME280;16272;48.188;9.964;2023-05-19T00:08:18;96174.75;;;11.42;62.55
29247;BME280;16272;48.188;9.964;2023-05-19T00:10:44;96169.28;;;11.15;63.45
29247;BME280;16272;48.188;9.964;2023-05-19T00:13:10;96162.63;;;11.29;63.17
29247;BME280;16272;48.188;9.964;2023-05-19T00:15:36;96160.53;;;11.23;62.63
29247;BME280;16272;48.188;9.964;2023-05-19T00:18:01;96153.03;;;11.46;61.47
29247;BME280;16272;48.188;9.964;2023-05-19T00:20:26;96157.75;;;11.25;62.62
29247;BME280;16272;48.188;9.964;2023-05-19T00:22:52;96153.19;;;11.17;62.40
29247;BME280;16272;48.188;9.964;2023-05-19T00:25:17;96152.75;;;10.74;63.27
29247;BME280;16272;48.188;9.964;2023-05-19T00:27:43;96153.72;;;10.73;63.79
29247;BME280;16272;48.188;9.964;2023-05-19T00:30:09;96150.09;;;10.84;63.22
29247;BME280;16272;48.188;9.964;2023-05-19T00:32:35;96157.78;;;10.77;63.04
29247;BME280;16272;48.188;9.964;2023-05-19T00:35:00;96151.16;;;10.91;62.78
29247;BME280;16272;48.188;9.964;2023-05-19T00:37:25;96148.47;;;11.01;62.46
29247;BME280;16272;48.188;9.964;2023-05-19T00:39:51;96150.69;;;10.68;63.53
29247;BME280;16272;48.188;9.964;2023-05-19T00:42:17;96146.94;;;10.61;63.49
29247;BME280;16272;48.188;9.964;2023-05-19T00:44:43;96143.50;;;10.78;63.32
29247;BME280;16272;48.188;9.964;2023-05-19T00:47:09;96139.06;;;10.69;63.50
29247;BME280;16272;48.188;9.964;2023-05-19T00:49:34;96142.44;;;10.61;63.48
29247;BME280;16272;48.188;9.964;2023-05-19T00:52:01;96137.56;;;10.57;63.85
29247;BME280;16272;48.188;9.964;2023-05-19T00:54:27;96144.19;;;10.33;64.22
29247;BME280;16272;48.188;9.964;2023-05-19T00:56:54;96145.94;;;10.62;64.42
29247;BME280;16272;48.188;9.964;2023-05-19T00:59:21;96139.28;;;10.38;63.99
29247;BME280;16272;48.188;9.964;2023-05-19T01:01:47;96132.38;;;10.55;63.75
29247;BME280;16272;48.188;9.964;2023-05-19T01:04:19;96133.25;;;10.36;63.98
29247;BME280;16272;48.188;9.964;2023-05-19T01:06:48;96133.25;;;10.36;64.04
29247;BME280;16272;48.188;9.964;2023-05-19T01:09:20;96136.75;;;10.37;64.51
29247;BME280;16272;48.188;9.964;2023-05-19T01:11:46;96127.09;;;10.26;64.70
29247;BME280;16272;48.188;9.964;2023-05-19T01:14:11;96132.56;;;10.34;64.12
29247;BME280;16272;48.188;9.964;2023-05-19T01:16:41;96123.47;;;10.07;64.72
29247;BME280;16272;48.188;9.964;2023-05-19T01:22:17;96131.44;;;10.46;64.28
29247;BME280;16272;48.188;9.964;2023-05-19T01:25:23;96132.69;;;10.03;66.10
29247;BME280;16272;48.188;9.964;2023-05-19T01:28:15;96135.19;;;10.05;66.13
29247;BME280;16272;48.188;9.964;2023-05-19T01:30:52;96134.38;;;9.94;66.13
29247;BME280;16272;48.188;9.964;2023-05-19T01:33:20;96133.94;;;9.80;67.10
29247;BME280;16272;48.188;9.964;2023-05-19T01:35:47;96142.75;;;10.09;66.32
29247;BME280;16272;48.188;9.964;2023-05-19T01:38:14;96136.75;;;9.98;66.09
29247;BME280;16272;48.188;9.964;2023-05-19T01:40:42;96139.69;;;10.04;66.58
29247;BME280;16272;48.188;9.964;2023-05-19T01:43:13;96132.13;;;10.00;65.87
29247;BME280;16272;48.188;9.964;2023-05-19T01:45:40;96134.66;;;10.11;65.88
29247;BME280;16272;48.188;9.964;2023-05-19T01:48:07;96138.84;;;10.14;65.84
29247;BME280;16272;48.188;9.964;2023-05-19T01:50:32;96138.84;;;9.94;66.47
29247;BME280;16272;48.188;9.964;2023-05-19T01:52:58;96139.81;;;10.12;65.88
29247;BME280;16272;48.188;9.964;2023-05-19T01:55:24;96133.41;;;10.05;65.62
29247;BME280;16272;48.188;9.964;2023-05-19T02:00:30;96137.72;;;9.87;66.34
29247;BME280;16272;48.188;9.964;2023-05-19T02:03:53;96131.03;;;9.92;66.60
29247;BME280;16272;48.188;9.964;2023-05-19T02:14:00;96130.34;;;9.90;66.16
29247;BME280;16272;48.188;9.964;2023-05-19T02:16:27;96138.28;;;9.71;67.13
29247;BME280;16272;48.188;9.964;2023-05-19T02:18:54;96122.66;;;9.87;66.01
29247;BME280;16272;48.188;9.964;2023-05-19T02:21:20;96138.69;;;9.76;68.26
29247;BME280;16272;48.188;9.964;2023-05-19T02:23:46;96138.56;;;9.78;67.17
29247;BME280;16272;48.188;9.964;2023-05-19T02:26:11;96143.00;;;9.67;67.43
29247;BME280;16272;48.188;9.964;2023-05-19T02:28:37;96127.38;;;9.84;67.07
29247;BME280;16272;48.188;9.964;2023-05-19T02:31:02;96134.09;;;9.98;66.55
29247;BME280;16272;48.188;9.964;2023-05-19T02:33:30;96125.59;;;9.94;66.28
29247;BME280;16272;48.188;9.964;2023-05-19T02:35:56;96130.31;;;10.10;66.33
29247;BME280;16272;48.188;9.964;2023-05-19T02:38:21;96129.19;;;9.83;67.56
29247;BME280;16272;48.188;9.964;2023-05-19T02:40:46;96122.66;;;9.97;67.01
29247;BME280;16272;48.188;9.964;2023-05-19T02:43:12;96122.38;;;10.00;66.95
29247;BME280;16272;48.188;9.964;2023-05-19T02:45:37;96122.38;;;9.81;68.19
29247;BME280;16272;48.188;9.964;2023-05-19T02:48:03;96119.00;;;9.79;67.89
29247;BME280;16272;48.188;9.964;2023-05-19T02:50:28;96113.41;;;10.01;67.63
29247;BME280;16272;48.188;9.964;2023-05-19T02:52:53;96114.41;;;10.00;66.65
29247;BME280;16272;48.188;9.964;2023-05-19T02:55:19;96107.44;;;9.99;67.31
29247;BME280;16272;48.188;9.964;2023-05-19T02:57:44;96112.59;;;9.91;67.23
29247;BME280;16272;48.188;9.964;2023-05-19T03:00:10;96112.47;;;10.02;67.17
29247;BME280;16272;48.188;9.964;2023-05-19T03:02:35;96113.41;;;10.01;67.61
29247;BME280;16272;48.188;9.964;2023-05-19T03:05:01;96107.00;;;9.84;67.86
29247;BME280;16272;48.188;9.964;2023-05-19T03:07:27;96099.47;;;9.80;68.05
29247;BME280;16272;48.188;9.964;2023-05-19T03:09:53;96099.44;;;9.60;69.29
29247;BME280;16272;48.188;9.964;2023-05-19T03:12:18;96096.53;;;9.83;68.62
29247;BME280;16272;48.188;9.964;2023-05-19T03:14:44;96096.41;;;9.94;67.62
29247;BME280;16272;48.188;9.964;2023-05-19T03:17:09;96100.03;;;9.83;67.62
29247;BME280;16272;48.188;9.964;2023-05-19T03:19:35;96100.03;;;9.93;67.40
29247;BME280;16272;48.188;9.964;2023-05-19T03:22:00;96099.19;;;9.83;67.73
29247;BME280;16272;48.188;9.964;2023-05-19T03:24:25;96098.63;;;9.79;67.56
29247;BME280;16272;48.188;9.964;2023-05-19T03:26:51;96103.25;;;9.57;68.73
29247;BME280;16272;48.188;9.964;2023-05-19T03:29:16;96107.56;;;9.88;67.54
29247;BME280;16272;48.188;9.964;2023-05-19T03:31:41;96116.47;;;9.48;69.35
29247;BME280;16272;48.188;9.964;2023-05-19T03:34:07;96112.03;;;9.78;68.06
29247;BME280;16272;48.188;9.964;2023-05-19T03:36:32;96111.16;;;9.67;68.07
29247;BME280;16272;48.188;9.964;2023-05-19T03:39:04;96108.09;;;9.62;68.27
29247;BME280;16272;48.188;9.964;2023-05-19T03:41:30;96109.53;;;9.76;68.32
29247;BME280;16272;48.188;9.964;2023-05-19T03:43:55;96118.44;;;9.75;68.61
29247;BME280;16272;48.188;9.964;2023-05-19T03:46:20;96113.56;;;9.70;67.78
29247;BME280;16272;48.188;9.964;2023-05-19T03:48:46;96114.28;;;9.72;68.71
29247;BME280;16272;48.188;9.964;2023-05-19T03:51:11;96109.50;;;9.66;68.24
29247;BME280;16272;48.188;9.964;2023-05-19T03:53:37;96112.03;;;9.68;68.45
29247;BME280;16272;48.188;9.964;2023-05-19T03:56:03;96106.31;;;9.82;67.01
29247;BME280;16272;48.188;9.964;2023-05-19T03:58:28;96106.00;;;9.85;67.43
29247;BME280;16272;48.188;9.964;2023-05-19T04:00:54;96115.22;;;9.52;69.29
29247;BME280;16272;48.188;9.964;2023-05-19T04:03:19;96117.31;;;9.58;67.80
29247;BME280;16272;48.188;9.964;2023-05-19T04:05:45;96116.34;;;9.69;68.02
29247;BME280;16272;48.188;9.964;2023-05-19T04:08:10;96116.19;;;9.70;68.11
29247;BME280;16272;48.188;9.964;2023-05-19T04:10:36;96114.41;;;9.81;67.47
29247;BME280;16272;48.188;9.964;2023-05-19T04:13:01;96113.00;;;9.77;68.52
29247;BME280;16272;48.188;9.964;2023-05-19T04:15:28;96115.09;;;9.73;68.11
29247;BME280;16272;48.188;9.964;2023-05-19T04:17:53;96119.00;;;9.79;68.54
29247;BME280;16272;48.188;9.964;2023-05-19T04:20:18;96116.94;;;9.72;68.09
29247;BME280;16272;48.188;9.964;2023-05-19T04:22:44;96116.50;;;9.87;67.95
29247;BME280;16272;48.188;9.964;2023-05-19T04:25:09;96114.28;;;9.82;67.78
29247;BME280;16272;48.188;9.964;2023-05-19T04:27:34;96118.72;;;9.82;67.89
29247;BME280;16272;48.188;9.964;2023-05-19T04:30:06;96109.25;;;9.89;68.27
29247;BME280;16272;48.188;9.964;2023-05-19T04:32:32;96109.81;;;10.02;67.64
29247;BME280;16272;48.188;9.964;2023-05-19T04:34:57;96114.41;;;10.00;67.20
29247;BME280;16272;48.188;9.964;2023-05-19T04:37:26;96113.28;;;9.93;68.68
29247;BME280;16272;48.188;9.964;2023-05-19T04:39:51;96110.78;;;9.82;67.27
29247;BME280;16272;48.188;9.964;2023-05-19T04:42:17;96099.16;;;10.22;66.62
29247;BME280;16272;48.188;9.964;2023-05-19T04:44:43;96102.38;;;10.45;67.22
29247;BME280;16272;48.188;9.964;2023-05-19T04:47:09;96102.91;;;10.29;67.38
29247;BME280;16272;48.188;9.964;2023-05-19T04:49:35;96105.59;;;10.39;67.15
29247;BME280;16272;48.188;9.964;2023-05-19T04:52:07;96101.03;;;10.69;65.84
29247;BME280;16272;48.188;9.964;2023-05-19T04:54:37;96108.66;;;10.24;66.38
29247;BME280;16272;48.188;9.964;2023-05-19T04:57:03;96106.00;;;10.34;67.39
29247;BME280;16272;48.188;9.964;2023-05-19T04:59:28;96109.69;;;10.71;66.23
29247;BME280;16272;48.188;9.964;2023-05-19T05:01:54;96109.56;;;10.62;66.08
29247;BME280;16272;48.188;9.964;2023-05-19T05:04:20;96115.50;;;10.46;66.70
29247;BME280;16272;48.188;9.964;2023-05-19T05:06:45;96116.88;;;10.51;66.12
29247;BME280;16272;48.188;9.964;2023-05-19T05:09:13;96111.69;;;10.59;66.00
29247;BME280;16272;48.188;9.964;2023-05-19T05:11:39;96113.84;;;10.83;65.72
29247;BME280;16272;48.188;9.964;2023-05-19T05:14:05;96108.78;;;10.90;65.58
29247;BME280;16272;48.188;9.964;2023-05-19T05:16:31;96121.13;;;10.81;65.71
29247;BME280;16272;48.188;9.964;2023-05-19T05:18:57;96116.88;;;11.26;65.98
29247;BME280;16272;48.188;9.964;2023-05-19T05:21:22;96114.72;;;11.57;64.04
29247;BME280;16272;48.188;9.964;2023-05-19T05:23:50;96115.81;;;11.18;64.80
29247;BME280;16272;48.188;9.964;2023-05-19T05:26:19;96118.31;;;11.20;64.82
29247;BME280;16272;48.188;9.964;2023-05-19T05:28:47;96113.19;;;11.09;64.92
29247;BME280;16272;48.188;9.964;2023-05-19T05:31:13;96107.03;;;11.36;64.46
29247;BME280;16272;48.188;9.964;2023-05-19T05:33:38;96102.41;;;11.38;64.12
29247;BME280;16272;48.188;9.964;2023-05-19T05:36:03;96100.53;;;11.20;64.89
29247;BME280;16272;48.188;9.964;2023-05-19T05:38:29;96107.22;;;11.25;65.67
29247;BME280;16272;48.188;9.964;2023-05-19T05:40:55;96107.59;;;11.57;64.83
29247;BME280;16272;48.188;9.964;2023-05-19T05:43:20;96109.66;;;11.82;64.28
29247;BME280;16272;48.188;9.964;2023-05-19T05:45:45;96110.94;;;11.59;63.96
29247;BME280;16272;48.188;9.964;2023-05-19T05:48:11;96111.91;;;11.40;64.08
29247;BME280;16272;48.188;9.964;2023-05-19T05:50:38;96117.56;;;11.73;64.30
29247;BME280;16272;48.188;9.964;2023-05-19T05:53:04;96115.72;;;11.74;63.94
29247;BME280;16272;48.188;9.964;2023-05-19T05:55:30;96114.59;;;11.31;64.10
29247;BME280;16272;48.188;9.964;2023-05-19T05:57:56;96112.25;;;11.73;63.40
29247;BME280;16272;48.188;9.964;2023-05-19T06:00:22;96114.53;;;11.86;63.84
29247;BME280;16272;48.188;9.964;2023-05-19T06:02:49;96110.34;;;11.84;63.42
29247;BME280;16272;48.188;9.964;2023-05-19T06:05:15;96118.00;;;11.51;65.56
29247;BME280;16272;48.188;9.964;2023-05-19T06:07:41;96117.94;;;11.61;64.42
29247;BME280;16272;48.188;9.964;2023-05-19T06:10:07;96109.47;;;12.11;64.48
29247;BME280;16272;48.188;9.964;2023-05-19T06:12:34;96117.97;;;11.97;65.04
29247;BME280;16272;48.188;9.964;2023-05-19T06:15:03;96113.63;;;12.31;63.97
29247;BME280;16272;48.188;9.964;2023-05-19T06:17:29;96114.56;;;12.22;63.45
29247;BME280;16272;48.188;9.964;2023-05-19T06:19:54;96123.59;;;11.93;63.41
29247;BME280;16272;48.188;9.964;2023-05-19T06:22:19;96125.41;;;11.75;64.85
29247;BME280;16272;48.188;9.964;2023-05-19T06:24:45;96119.06;;;12.04;64.17
29247;BME280;16272;48.188;9.964;2023-05-19T06:27:10;96118.34;;;12.20;64.93
29247;BME280;16272;48.188;9.964;2023-05-19T06:29:35;96117.06;;;12.24;63.00
29247;BME280;16272;48.188;9.964;2023-05-19T06:32:01;96117.16;;;12.58;63.31
29247;BME280;16272;48.188;9.964;2023-05-19T06:34:26;96119.44;;;12.53;62.22
29247;BME280;16272;48.188;9.964;2023-05-19T06:36:52;96122.88;;;12.98;62.83
29247;BME280;16272;48.188;9.964;2023-05-19T06:39:17;96122.25;;;13.04;60.91
29247;BME280;16272;48.188;9.964;2023-05-19T06:41:42;96122.31;;;12.86;60.65
29247;BME280;16272;48.188;9.964;2023-05-19T06:44:09;96123.34;;;12.41;62.23
29247;BME280;16272;48.188;9.964;2023-05-19T06:46:34;96118.47;;;13.23;60.47
29247;BME280;16272;48.188;9.964;2023-05-19T06:49:00;96120.06;;;12.73;62.36
29247;BME280;16272;48.188;9.964;2023-05-19T06:51:25;96119.19;;;13.68;58.45
29247;BME280;16272;48.188;9.964;2023-05-19T06:53:51;96113.91;;;13.33;59.34
29247;BME280;16272;48.188;9.964;2023-05-19T06:56:16;96122.28;;;13.47;60.96
29247;BME280;16272;48.188;9.964;2023-05-19T06:58:43;96124.25;;;12.76;58.84
29247;BME280;16272;48.188;9.964;2023-05-19T07:01:08;96127.81;;;12.84;62.52
29247;BME280;16272;48.188;9.964;2023-05-19T07:03:34;96126.72;;;13.03;61.35
29247;BME280;16272;48.188;9.964;2023-05-19T07:05:59;96116.03;;;12.69;61.20
29247;BME280;16272;48.188;9.964;2023-05-19T07:08:24;96116.34;;;13.69;62.09
29247;BME280;16272;48.188;9.964;2023-05-19T07:10:51;96114.66;;;13.26;60.82
29247;BME280;16272;48.188;9.964;2023-05-19T07:13:17;96104.22;;;14.24;59.00
29247;BME280;16272;48.188;9.964;2023-05-19T07:15:42;96111.03;;;13.69;60.61
29247;BME280;16272;48.188;9.964;2023-05-19T07:18:08;96104.00;;;13.68;59.09
29247;BME280;16272;48.188;9.964;2023-05-19T07:20:33;96101.31;;;13.68;60.28
29247;BME280;16272;48.188;9.964;2023-05-19T07:22:59;96103.22;;;14.01;60.35
29247;BME280;16272;48.188;9.964;2023-05-19T07:25:28;96098.53;;;14.44;58.57
29247;BME280;16272;48.188;9.964;2023-05-19T07:27:55;96095.38;;;14.24;57.99
29247;BME280;16272;48.188;9.964;2023-05-19T07:30:21;96096.38;;;14.23;57.53
29247;BME280;16272;48.188;9.964;2023-05-19T07:32:47;96088.03;;;14.42;57.26
29247;BME280;16272;48.188;9.964;2023-05-19T07:35:12;96088.34;;;13.82;58.75
29247;BME280;16272;48.188;9.964;2023-05-19T07:37:38;96092.88;;;14.63;59.68
29247;BME280;16272;48.188;9.964;2023-05-19T07:40:03;96091.69;;;14.33;55.95
29247;BME280;16272;48.188;9.964;2023-05-19T07:42:30;96091.88;;;14.48;56.55
29247;BME280;16272;48.188;9.964;2023-05-19T07:44:56;96108.94;;;13.47;61.40
29247;BME280;16272;48.188;9.964;2023-05-19T07:47:21;96098.88;;;13.91;61.41
29247;BME280;16272;48.188;9.964;2023-05-19T07:49:46;96110.25;;;13.42;61.74
29247;BME280;16272;48.188;9.964;2023-05-19T07:52:12;96093.84;;;14.54;58.09
29247;BME280;16272;48.188;9.964;2023-05-19T07:54:37;96096.00;;;14.59;57.26
29247;BME280;16272;48.188;9.964;2023-05-19T07:57:02;96090.84;;;14.49;58.61
29247;BME280;16272;48.188;9.964;2023-05-19T07:59:28;96092.38;;;14.43;57.12
29247;BME280;16272;48.188;9.964;2023-05-19T08:01:53;96088.03;;;13.93;58.56
29247;BME280;16272;48.188;9.964;2023-05-19T08:04:18;96079.50;;;14.72;58.82
29247;BME280;16272;48.188;9.964;2023-05-19T08:06:44;96091.69;;;14.41;56.74
29247;BME280;16272;48.188;9.964;2023-05-19T08:09:09;96089.66;;;13.69;57.86
29247;BME280;16272;48.188;9.964;2023-05-19T08:11:35;96096.03;;;14.01;57.04
29247;BME280;16272;48.188;9.964;2023-05-19T08:14:01;96090.38;;;14.12;59.63
29247;BME280;16272;48.188;9.964;2023-05-19T08:16:26;96091.72;;;14.66;58.15
29247;BME280;16272;48.188;9.964;2023-05-19T08:18:52;96100.38;;;14.02;59.31
29247;BME280;16272;48.188;9.964;2023-05-19T08:21:17;96091.69;;;14.00;58.32
29247;BME280;16272;48.188;9.964;2023-05-19T08:23:42;96085.34;;;14.01;56.89
29247;BME280;16272;48.188;9.964;2023-05-19T08:26:09;96078.16;;;14.43;59.76
29247;BME280;16272;48.188;9.964;2023-05-19T08:28:34;96081.81;;;14.58;60.96
29247;BME280;16272;48.188;9.964;2023-05-19T08:30:59;96080.44;;;15.35;56.83
29247;BME280;16272;48.188;9.964;2023-05-19T08:33:25;96080.28;;;14.88;55.36
29247;BME280;16272;48.188;9.964;2023-05-19T08:35:51;96076.59;;;14.89;55.96
29247;BME280;16272;48.188;9.964;2023-05-19T08:38:16;96082.53;;;14.27;56.17
29247;BME280;16272;48.188;9.964;2023-05-19T08:40:45;96085.34;;;14.42;57.09
29247;BME280;16272;48.188;9.964;2023-05-19T08:43:11;96076.66;;;13.83;56.98
29247;BME280;16272;48.188;9.964;2023-05-19T08:45:38;96069.81;;;14.29;59.71
29247;BME280;16272;48.188;9.964;2023-05-19T08:48:07;96075.00;;;14.06;58.04
29247;BME280;16272;48.188;9.964;2023-05-19T08:50:36;96069.66;;;14.23;57.82
29247;BME280;16272;48.188;9.964;2023-05-19T08:53:35;96079.66;;;15.57;58.08
29247;BME280;16272;48.188;9.964;2023-05-19T08:56:07;96064.66;;;15.48;56.24
29247;BME280;16272;48.188;9.964;2023-05-19T08:58:38;96067.88;;;15.04;58.07
29247;BME280;16272;48.188;9.964;2023-05-19T09:01:05;96071.50;;;14.14;58.01
29247;BME280;16272;48.188;9.964;2023-05-19T09:03:35;96063.63;;;14.62;57.25
29247;BME280;16272;48.188;9.964;2023-05-19T09:06:07;96069.84;;;15.02;57.25
29247;BME280;16272;48.188;9.964;2023-05-19T09:08:33;96064.09;;;15.21;55.43
29247;BME280;16272;48.188;9.964;2023-05-19T09:10:58;96069.94;;;15.33;54.61
29247;BME280;16272;48.188;9.964;2023-05-19T09:13:24;96061.41;;;15.21;55.28
29247;BME280;16272;48.188;9.964;2023-05-19T09:15:57;96055.53;;;15.89;57.13
29247;BME280;16272;48.188;9.964;2023-05-19T09:18:26;96055.16;;;16.15;54.86
29247;BME280;16272;48.188;9.964;2023-05-19T09:20:57;96063.09;;;15.54;56.08
29247;BME280;16272;48.188;9.964;2023-05-19T09:23:28;96056.72;;;15.32;56.12
29247;BME280;16272;48.188;9.964;2023-05-19T09:25:54;96060.91;;;15.57;54.84
29247;BME280;16272;48.188;9.964;2023-05-19T09:28:28;96058.84;;;15.36;54.83
29247;BME280;16272;48.188;9.964;2023-05-19T09:31:04;96052.16;;;16.56;52.00
29247;BME280;16272;48.188;9.964;2023-05-19T09:33:32;96045.03;;;16.10;55.41
29247;BME280;16272;48.188;9.964;2023-05-19T09:35:58;96043.00;;;16.12;54.67
29247;BME280;16272;48.188;9.964;2023-05-19T09:38:25;96047.13;;;16.38;52.66
29247;BME280;16272;48.188;9.964;2023-05-19T09:40:52;96045.91;;;16.03;54.48
29247;BME280;16272;48.188;9.964;2023-05-19T09:43:18;96050.34;;;15.33;57.62
29247;BME280;16272;48.188;9.964;2023-05-19T09:45:43;96040.25;;;15.97;53.17
29247;BME280;16272;48.188;9.964;2023-05-19T09:48:09;96036.88;;;16.04;52.43
29247;BME280;16272;48.188;9.964;2023-05-19T09:50:34;96037.72;;;15.73;54.96
29247;BME280;16272;48.188;9.964;2023-05-19T09:53:01;96037.03;;;16.25;52.80
29247;BME280;16272;48.188;9.964;2023-05-19T09:55:29;96042.59;;;15.77;51.88
29247;BME280;16272;48.188;9.964;2023-05-19T09:57:54;96042.22;;;16.42;53.45
29247;BME280;16272;48.188;9.964;2023-05-19T10:00:30;96043.38;;;16.24;51.54
29247;BME280;16272;48.188;9.964;2023-05-19T10:02:57;96033.94;;;15.36;53.02
29247;BME280;16272;48.188;9.964;2023-05-19T10:05:23;96038.88;;;15.78;53.33
29247;BME280;16272;48.188;9.964;2023-05-19T10:07:50;96028.03;;;16.18;52.85
29247;BME280;16272;48.188;9.964;2023-05-19T10:10:17;96032.00;;;15.84;52.80
29247;BME280;16272;48.188;9.964;2023-05-19T10:12:45;96026.75;;;15.91;53.82
29247;BME280;16272;48.188;9.964;2023-05-19T10:15:12;96035.34;;;14.84;55.49
29247;BME280;16272;48.188;9.964;2023-05-19T10:17:40;96033.59;;;14.43;56.99
29247;BME280;16272;48.188;9.964;2023-05-19T10:20:10;96038.88;;;14.76;57.12
29247;BME280;16272;48.188;9.964;2023-05-19T10:22:38;96040.69;;;15.23;54.95
29247;BME280;16272;48.188;9.964;2023-05-19T10:25:04;96037.03;;;15.16;55.68
29247;BME280;16272;48.188;9.964;2023-05-19T10:27:32;96038.94;;;14.43;56.77
29247;BME280;16272;48.188;9.964;2023-05-19T10:30:03;96045.00;;;14.93;55.72
29247;BME280;16272;48.188;9.964;2023-05-19T10:32:31;96043.81;;;14.96;55.23
29247;BME280;16272;48.188;9.964;2023-05-19T10:40:09;96049.59;;;14.68;58.54
29247;BME280;16272;48.188;9.964;2023-05-19T10:43:10;96048.72;;;14.84;57.81
29247;BME280;16272;48.188;9.964;2023-05-19T10:45:47;96052.00;;;14.13;59.08
29247;BME280;16272;48.188;9.964;2023-05-19T10:48:14;96047.41;;;14.55;56.75
29247;BME280;16272;48.188;9.964;2023-05-19T10:50:43;96050.56;;;14.75;56.60
29247;BME280;16272;48.188;9.964;2023-05-19T10:53:16;96053.63;;;15.03;55.92
29247;BME280;16272;48.188;9.964;2023-05-19T10:55:51;96050.75;;;15.53;55.34
29247;BME280;16272;48.188;9.964;2023-05-19T10:58:36;96048.94;;;15.45;55.18
29247;BME280;16272;48.188;9.964;2023-05-19T11:01:07;96051.28;;;15.17;56.70
29247;BME280;16272;48.188;9.964;2023-05-19T11:03:51;96046.81;;;15.01;56.33
29247;BME280;16272;48.188;9.964;2023-05-19T11:09:10;96043.53;;;15.22;56.22
29247;BME280;16272;48.188;9.964;2023-05-19T11:11:47;96045.47;;;14.97;56.44
29247;BME280;16272;48.188;9.964;2023-05-19T11:14:17;96050.94;;;14.64;56.56
29247;BME280;16272;48.188;9.964;2023-05-19T11:16:46;96048.28;;;15.43;54.80
29247;BME280;16272;48.188;9.964;2023-05-19T11:19:34;96046.34;;;15.29;54.51
29247;BME280;16272;48.188;9.964;2023-05-19T11:22:11;96047.69;;;15.24;56.00
29247;BME280;16272;48.188;9.964;2023-05-19T11:24:38;96056.97;;;14.49;56.43
29247;BME280;16272;48.188;9.964;2023-05-19T11:29:49;96045.19;;;14.83;56.29
29247;BME280;16272;48.188;9.964;2023-05-19T11:32:21;96050.38;;;14.85;56.58
29247;BME280;16272;48.188;9.964;2023-05-19T11:34:51;96048.75;;;14.43;58.00
29247;BME280;16272;48.188;9.964;2023-05-19T11:37:17;96044.72;;;14.80;56.00
29247;BME280;16272;48.188;9.964;2023-05-19T11:39:44;96050.09;;;14.47;55.88
29247;BME280;16272;48.188;9.964;2023-05-19T11:42:11;96044.28;;;14.60;57.99
29247;BME280;16272;48.188;9.964;2023-05-19T11:44:36;96055.28;;;14.40;58.21
29247;BME280;16272;48.188;9.964;2023-05-19T11:47:03;96047.13;;;14.25;60.28
29247;BME280;16272;48.188;9.964;2023-05-19T11:49:28;96050.72;;;14.74;57.13
29247;BME280;16272;48.188;9.964;2023-05-19T11:51:54;96053.25;;;14.50;55.96
29247;BME280;16272;48.188;9.964;2023-05-19T11:54:28;96054.25;;;14.82;55.40
29247;BME280;16272;48.188;9.964;2023-05-19T11:56:53;96053.59;;;14.56;56.19
29247;BME280;16272;48.188;9.964;2023-05-19T11:59:28;96039.53;;;15.18;53.43
29247;BME280;16272;48.188;9.964;2023-05-19T12:01:54;96045.78;;;15.96;54.12
29247;BME280;16272;48.188;9.964;2023-05-19T12:04:19;96045.53;;;15.59;55.75
29247;BME280;16272;48.188;9.964;2023-05-19T12:06:47;96040.97;;;15.37;55.23
29247;BME280;16272;48.188;9.964;2023-05-19T12:09:13;96040.75;;;15.70;54.71
29247;BME280;16272;48.188;9.964;2023-05-19T12:11:39;96045.13;;;16.17;53.24
29247;BME280;16272;48.188;9.964;2023-05-19T12:14:04;96044.78;;;16.20;53.09
29247;BME280;16272;48.188;9.964;2023-05-19T12:16:36;96041.72;;;16.00;54.62
29247;BME280;16272;48.188;9.964;2023-05-19T12:19:04;96036.06;;;16.18;53.20
29247;BME280;16272;48.188;9.964;2023-05-19T12:21:30;96033.47;;;16.25;52.09
29247;BME280;16272;48.188;9.964;2023-05-19T12:23:57;96031.94;;;16.30;52.61
29247;BME280;16272;48.188;9.964;2023-05-19T12:26:23;96038.84;;;15.55;53.61
29247;BME280;16272;48.188;9.964;2023-05-19T12:28:48;96034.38;;;15.71;53.88
29247;BME280;16272;48.188;9.964;2023-05-19T12:31:15;96036.19;;;15.24;54.75
29247;BME280;16272;48.188;9.964;2023-05-19T12:33:41;96046.59;;;14.71;55.36
29247;BME280;16272;48.188;9.964;2023-05-19T12:36:06;96042.91;;;14.47;55.81
29247;BME280;16272;48.188;9.964;2023-05-19T12:38:33;96037.22;;;14.59;55.92
29247;BME280;16272;48.188;9.964;2023-05-19T12:41:01;96040.91;;;14.58;57.08
29247;BME280;16272;48.188;9.964;2023-05-19T12:43:28;96036.06;;;14.69;56.50
29247;BME280;16272;48.188;9.964;2023-05-19T12:45:54;96029.28;;;14.90;56.67
29247;BME280;16272;48.188;9.964;2023-05-19T12:48:22;96033.84;;;14.81;56.39
29247;BME280;16272;48.188;9.964;2023-05-19T12:50:51;96029.00;;;15.48;55.35
29247;BME280;16272;48.188;9.964;2023-05-19T12:53:20;96023.94;;;14.90;55.58
29247;BME280;16272;48.188;9.964;2023-05-19T12:55:45;96032.00;;;15.21;54.85
29247;BME280;16272;48.188;9.964;2023-05-19T12:58:11;96028.31;;;15.22;53.87
29247;BME280;16272;48.188;9.964;2023-05-19T13:00:42;96020.03;;;15.63;54.05
29247;BME280;16272;48.188;9.964;2023-05-19T13:03:17;96021.50;;;15.74;54.88
29247;BME280;16272;48.188;9.964;2023-05-19T13:05:46;96026.22;;;15.64;55.09
29247;BME280;16272;48.188;9.964;2023-05-19T13:08:13;96028.81;;;14.86;56.52
29247;BME280;16272;48.188;9.964;2023-05-19T13:10:40;96027.28;;;15.32;54.07
29247;BME280;16272;48.188;9.964;2023-05-19T13:13:06;96024.69;;;15.70;55.02
29247;BME280;16272;48.188;9.964;2023-05-19T13:15:33;96023.19;;;15.13;55.52
29247;BME280;16272;48.188;9.964;2023-05-19T13:18:01;96027.56;;;14.33;56.66
29247;BME280;16272;48.188;9.964;2023-05-19T13:20:27;96026.44;;;14.92;56.03
29247;BME280;16272;48.188;9.964;2023-05-19T13:22:53;96021.78;;;14.85;55.70
29247;BME280;16272;48.188;9.964;2023-05-19T13:25:18;96016.38;;;15.02;55.09
29247;BME280;16272;48.188;9.964;2023-05-19T13:27:44;96020.72;;;15.34;54.31